sensor_id;sensor_type;location;lat;lon;timestamp;pressure;altitude;pressure_sealevel;temperature;humidity
84026;BME280;74110;45.660;25.582;2023-12-20T00:00:33;95458.58;;;-0.56;74.85
84026;BME280;74110;45.660;25.582;2023-12-20T00:03:22;95457.23;;;-0.54;75.07
84026;BME280;74110;45.660;25.582;2023-12-20T00:05:53;95452.48;;;-0.51;75.20
84026;BME280;74110;45.660;25.582;2023-12-20T00:08:21;95450.76;;;-0.54;76.13
84026;BME280;74110;45.660;25.582;2023-12-20T00:10:51;95445.62;;;-0.54;75.02
84026;BME280;74110;45.660;25.582;2023-12-20T00:13:19;95443.67;;;-0.50;75.06
84026;BME280;74110;45.660;25.582;2023-12-20T00:15:48;95447.96;;;-0.47;75.31
84026;BME280;74110;45.660;25.582;2023-12-20T00:18:17;95442.88;;;-0.45;75.12
84026;BME280;74110;45.660;25.582;2023-12-20T00:20:47;95440.60;;;-0.44;74.59
84026;BME280;74110;45.660;25.582;2023-12-20T00:23:16;95441.28;;;-0.40;74.03
84026;BME280;74110;45.660;25.582;2023-12-20T00:25:45;95431.48;;;-0.38;73.59
84026;BME280;74110;45.660;25.582;2023-12-20T00:28:14;95429.73;;;-0.36;73.45
84026;BME280;74110;45.660;25.582;2023-12-20T00:30:43;95424.75;;;-0.39;74.27
84026;BME280;74110;45.660;25.582;2023-12-20T00:33:12;95422.81;;;-0.46;74.43
84026;BME280;74110;45.660;25.582;2023-12-20T00:35:41;95416.45;;;-0.60;75.25
84026;BME280;74110;45.660;25.582;2023-12-20T00:38:10;95418.48;;;-0.60;74.72
84026;BME280;74110;45.660;25.582;2023-12-20T00:40:40;95411.73;;;-0.55;75.06
84026;BME280;74110;45.660;25.582;2023-12-20T00:43:09;95407.17;;;-0.49;74.67
84026;BME280;74110;45.660;25.582;2023-12-20T00:45:37;95404.52;;;-0.44;74.87
84026;BME280;74110;45.660;25.582;2023-12-20T00:48:06;95403.73;;;-0.44;74.57
84026;BME280;74110;45.660;25.582;2023-12-20T00:50:36;95401.23;;;-0.44;74.16
84026;BME280;74110;45.660;25.582;2023-12-20T00:53:04;95395.44;;;-0.46;73.95
84026;BME280;74110;45.660;25.582;2023-12-20T00:55:34;95389.17;;;-0.48;73.37
84026;BME280;74110;45.660;25.582;2023-12-20T00:58:03;95387.77;;;-0.48;74.37
84026;BME280;74110;45.660;25.582;2023-12-20T01:00:33;95388.91;;;-0.52;74.29
84026;BME280;74110;45.660;25.582;2023-12-20T01:03:02;95388.20;;;-0.58;74.04
84026;BME280;74110;45.660;25.582;2023-12-20T01:05:32;95384.55;;;-0.64;74.42
84026;BME280;74110;45.660;25.582;2023-12-20T01:08:01;95377.00;;;-0.67;75.03
84026;BME280;74110;45.660;25.582;2023-12-20T01:10:32;95377.04;;;-0.67;75.15
84026;BME280;74110;45.660;25.582;2023-12-20T01:13:01;95375.42;;;-0.67;75.72
84026;BME280;74110;45.660;25.582;2023-12-20T01:15:30;95370.88;;;-0.68;76.16
84026;BME280;74110;45.660;25.582;2023-12-20T01:17:59;95366.95;;;-0.72;76.36
84026;BME280;74110;45.660;25.582;2023-12-20T01:20:28;95358.85;;;-0.83;76.62
84026;BME280;74110;45.660;25.582;2023-12-20T01:22:58;95351.99;;;-0.87;75.97
84026;BME280;74110;45.660;25.582;2023-12-20T01:25:27;95340.59;;;-0.87;75.72
84026;BME280;74110;45.660;25.582;2023-12-20T01:27:56;95337.02;;;-0.92;76.32
84026;BME280;74110;45.660;25.582;2023-12-20T01:30:25;95335.40;;;-0.94;76.37
84026;BME280;74110;45.660;25.582;2023-12-20T01:32:54;95329.94;;;-0.94;76.78
84026;BME280;74110;45.660;25.582;2023-12-20T01:35:23;95322.90;;;-0.90;76.81
84026;BME280;74110;45.660;25.582;2023-12-20T01:37:52;95315.00;;;-0.81;76.07
84026;BME280;74110;45.660;25.582;2023-12-20T01:40:25;95316.04;;;-0.72;75.95
84026;BME280;74110;45.660;25.582;2023-12-20T01:43:02;95313.46;;;-0.67;75.09
84026;BME280;74110;45.660;25.582;2023-12-20T01:45:31;95305.48;;;-0.60;74.69
84026;BME280;74110;45.660;25.582;2023-12-20T01:48:00;95299.65;;;-0.59;75.66
84026;BME280;74110;45.660;25.582;2023-12-20T01:50:32;95292.23;;;-0.69;76.34
84026;BME280;74110;45.660;25.582;2023-12-20T01:53:04;95279.44;;;-0.71;75.62
84026;BME280;74110;45.660;25.582;2023-12-20T01:55:39;95275.27;;;-0.71;75.34
84026;BME280;74110;45.660;25.582;2023-12-20T01:58:10;95267.66;;;-0.70;75.26
84026;BME280;74110;45.660;25.582;2023-12-20T02:00:39;95262.13;;;-0.66;75.31
84026;BME280;74110;45.660;25.582;2023-12-20T02:03:08;95258.84;;;-0.63;74.72
84026;BME280;74110;45.660;25.582;2023-12-20T02:05:38;95257.55;;;-0.64;74.81
84026;BME280;74110;45.660;25.582;2023-12-20T02:08:07;95256.30;;;-0.63;74.33
84026;BME280;74110;45.660;25.582;2023-12-20T02:10:36;95250.88;;;-0.62;74.00
84026;BME280;74110;45.660;25.582;2023-12-20T02:13:05;95257.41;;;-0.64;73.66
84026;BME280;74110;45.660;25.582;2023-12-20T02:15:35;95253.28;;;-0.68;73.88
84026;BME280;74110;45.660;25.582;2023-12-20T02:18:06;95251.63;;;-0.74;74.23
84026;BME280;74110;45.660;25.582;2023-12-20T02:20:36;95248.39;;;-0.86;74.07
84026;BME280;74110;45.660;25.582;2023-12-20T02:23:04;95241.44;;;-0.95;74.01
84026;BME280;74110;45.660;25.582;2023-12-20T02:25:34;95237.45;;;-1.04;75.18
84026;BME280;74110;45.660;25.582;2023-12-20T02:28:04;95230.63;;;-1.23;76.64
84026;BME280;74110;45.660;25.582;2023-12-20T02:30:33;95226.72;;;-1.23;75.57
84026;BME280;74110;45.660;25.582;2023-12-20T02:33:04;95223.27;;;-1.19;75.52
84026;BME280;74110;45.660;25.582;2023-12-20T02:35:38;95218.98;;;-1.16;75.28
84026;BME280;74110;45.660;25.582;2023-12-20T02:38:07;95222.82;;;-1.18;75.76
84026;BME280;74110;45.660;25.582;2023-12-20T02:40:36;95216.41;;;-1.27;77.23
84026;BME280;74110;45.660;25.582;2023-12-20T02:43:05;95215.27;;;-1.29;76.15
84026;BME280;74110;45.660;25.582;2023-12-20T02:45:33;95212.64;;;-1.27;75.16
84026;BME280;74110;45.660;25.582;2023-12-20T02:48:03;95207.63;;;-1.24;75.86
84026;BME280;74110;45.660;25.582;2023-12-20T02:50:32;95207.04;;;-1.28;75.86
84026;BME280;74110;45.660;25.582;2023-12-20T02:53:01;95206.85;;;-1.31;76.31
84026;BME280;74110;45.660;25.582;2023-12-20T02:55:30;95211.98;;;-1.32;75.89
84026;BME280;74110;45.660;25.582;2023-12-20T02:58:00;95213.20;;;-1.27;75.66
84026;BME280;74110;45.660;25.582;2023-12-20T03:00:29;95208.71;;;-1.21;75.66
84026;BME280;74110;45.660;25.582;2023-12-20T03:02:58;95209.64;;;-1.21;75.13
84026;BME280;74110;45.660;25.582;2023-12-20T03:05:28;95207.27;;;-1.21;74.95
84026;BME280;74110;45.660;25.582;2023-12-20T03:07:58;95204.40;;;-1.20;74.48
84026;BME280;74110;45.660;25.582;2023-12-20T03:10:27;95203.35;;;-1.23;75.04
84026;BME280;74110;45.660;25.582;2023-12-20T03:12:55;95200.48;;;-1.29;75.84
84026;BME280;74110;45.660;25.582;2023-12-20T03:15:25;95203.15;;;-1.41;76.45
84026;BME280;74110;45.660;25.582;2023-12-20T03:17:55;95191.83;;;-1.52;77.82
84026;BME280;74110;45.660;25.582;2023-12-20T03:20:25;95192.77;;;-1.57;78.49
84026;BME280;74110;45.660;25.582;2023-12-20T03:23:03;95191.11;;;-1.55;77.75
84026;BME280;74110;45.660;25.582;2023-12-20T03:25:32;95184.27;;;-1.51;77.63
84026;BME280;74110;45.660;25.582;2023-12-20T03:28:08;95182.02;;;-1.46;76.88
84026;BME280;74110;45.660;25.582;2023-12-20T03:30:38;95187.93;;;-1.43;76.44
84026;BME280;74110;45.660;25.582;2023-12-20T03:33:07;95186.55;;;-1.42;76.65
84026;BME280;74110;45.660;25.582;2023-12-20T03:35:36;95185.42;;;-1.41;75.66
84026;BME280;74110;45.660;25.582;2023-12-20T03:38:05;95175.57;;;-1.37;74.88
84026;BME280;74110;45.660;25.582;2023-12-20T03:40:35;95175.20;;;-1.35;75.39
84026;BME280;74110;45.660;25.582;2023-12-20T03:43:03;95164.75;;;-1.38;75.59
84026;BME280;74110;45.660;25.582;2023-12-20T03:45:33;95155.04;;;-1.45;76.08
84026;BME280;74110;45.660;25.582;2023-12-20T03:48:02;95152.69;;;-1.51;76.23
84026;BME280;74110;45.660;25.582;2023-12-20T03:50:32;95155.01;;;-1.54;76.29
84026;BME280;74110;45.660;25.582;2023-12-20T03:53:02;95151.45;;;-1.55;76.40
84026;BME280;74110;45.660;25.582;2023-12-20T03:55:31;95151.43;;;-1.56;76.79
84026;BME280;74110;45.660;25.582;2023-12-20T03:58:00;95145.52;;;-1.54;76.17
84026;BME280;74110;45.660;25.582;2023-12-20T04:00:29;95142.11;;;-1.55;75.71
84026;BME280;74110;45.660;25.582;2023-12-20T04:02:57;95136.66;;;-1.56;75.53
84026;BME280;74110;45.660;25.582;2023-12-20T04:05:26;95139.04;;;-1.59;75.22
84026;BME280;74110;45.660;25.582;2023-12-20T04:07:56;95144.05;;;-1.61;76.75
84026;BME280;74110;45.660;25.582;2023-12-20T04:10:25;95139.59;;;-1.65;75.81
84026;BME280;74110;45.660;25.582;2023-12-20T04:12:54;95136.80;;;-1.63;74.94
84026;BME280;74110;45.660;25.582;2023-12-20T04:15:24;95135.37;;;-1.57;75.15
84026;BME280;74110;45.660;25.582;2023-12-20T04:17:53;95128.91;;;-1.51;76.05
84026;BME280;74110;45.660;25.582;2023-12-20T04:20:22;95125.62;;;-1.48;76.33
84026;BME280;74110;45.660;25.582;2023-12-20T04:22:51;95117.80;;;-1.49;76.43
84026;BME280;74110;45.660;25.582;2023-12-20T04:25:20;95115.96;;;-1.52;76.43
84026;BME280;74110;45.660;25.582;2023-12-20T04:27:49;95116.70;;;-1.58;75.91
84026;BME280;74110;45.660;25.582;2023-12-20T04:30:19;95112.07;;;-1.62;76.42
84026;BME280;74110;45.660;25.582;2023-12-20T04:32:48;95116.47;;;-1.63;76.04
84026;BME280;74110;45.660;25.582;2023-12-20T04:35:17;95113.73;;;-1.63;75.17
84026;BME280;74110;45.660;25.582;2023-12-20T04:37:47;95109.73;;;-1.61;74.66
84026;BME280;74110;45.660;25.582;2023-12-20T04:40:18;95104.77;;;-1.60;74.93
84026;BME280;74110;45.660;25.582;2023-12-20T04:42:46;95107.83;;;-1.61;74.75
84026;BME280;74110;45.660;25.582;2023-12-20T04:45:15;95106.34;;;-1.60;75.12
84026;BME280;74110;45.660;25.582;2023-12-20T04:47:45;95111.58;;;-1.56;75.23
84026;BME280;74110;45.660;25.582;2023-12-20T04:50:16;95112.11;;;-1.56;75.23
84026;BME280;74110;45.660;25.582;2023-12-20T04:52:45;95105.84;;;-1.53;74.97
84026;BME280;74110;45.660;25.582;2023-12-20T04:55:14;95108.23;;;-1.53;74.43
84026;BME280;74110;45.660;25.582;2023-12-20T04:57:43;95107.08;;;-1.58;74.29
84026;BME280;74110;45.660;25.582;2023-12-20T05:00:13;95110.98;;;-1.64;74.44
84026;BME280;74110;45.660;25.582;2023-12-20T05:02:44;95108.46;;;-1.73;74.71
84026;BME280;74110;45.660;25.582;2023-12-20T05:05:13;95107.26;;;-1.77;74.58
84026;BME280;74110;45.660;25.582;2023-12-20T05:07:43;95106.24;;;-1.82;74.73
84026;BME280;74110;45.660;25.582;2023-12-20T05:10:13;95104.28;;;-1.88;74.62
84026;BME280;74110;45.660;25.582;2023-12-20T05:12:42;95105.62;;;-1.89;74.15
84026;BME280;74110;45.660;25.582;2023-12-20T05:15:11;95099.25;;;-1.87;74.69
84026;BME280;74110;45.660;25.582;2023-12-20T05:17:40;95095.73;;;-1.82;74.97
84026;BME280;74110;45.660;25.582;2023-12-20T05:20:09;95093.69;;;-1.76;75.44
84026;BME280;74110;45.660;25.582;2023-12-20T05:22:40;95094.77;;;-1.71;75.05
84026;BME280;74110;45.660;25.582;2023-12-20T05:25:09;95090.08;;;-1.66;74.53
84026;BME280;74110;45.660;25.582;2023-12-20T05:27:38;95092.94;;;-1.62;74.21
84026;BME280;74110;45.660;25.582;2023-12-20T05:30:07;95084.44;;;-1.62;73.87
84026;BME280;74110;45.660;25.582;2023-12-20T05:32:36;95077.05;;;-1.61;73.98
84026;BME280;74110;45.660;25.582;2023-12-20T05:35:06;95076.04;;;-1.63;73.68
84026;BME280;74110;45.660;25.582;2023-12-20T05:37:35;95077.83;;;-1.64;73.91
84026;BME280;74110;45.660;25.582;2023-12-20T05:40:06;95069.52;;;-1.65;74.93
84026;BME280;74110;45.660;25.582;2023-12-20T05:42:39;95065.09;;;-1.63;75.81
84026;BME280;74110;45.660;25.582;2023-12-20T05:45:07;95061.79;;;-1.57;75.95
84026;BME280;74110;45.660;25.582;2023-12-20T05:47:38;95062.67;;;-1.52;76.14
84026;BME280;74110;45.660;25.582;2023-12-20T05:50:07;95063.20;;;-1.48;76.69
84026;BME280;74110;45.660;25.582;2023-12-20T05:52:36;95063.66;;;-1.46;76.40
84026;BME280;74110;45.660;25.582;2023-12-20T05:55:06;95052.12;;;-1.45;75.83
84026;BME280;74110;45.660;25.582;2023-12-20T05:57:35;95051.80;;;-1.40;75.15
84026;BME280;74110;45.660;25.582;2023-12-20T06:00:05;95053.95;;;-1.35;75.24
84026;BME280;74110;45.660;25.582;2023-12-20T06:02:39;95051.13;;;-1.31;76.40
84026;BME280;74110;45.660;25.582;2023-12-20T06:05:09;95045.06;;;-1.29;75.81
84026;BME280;74110;45.660;25.582;2023-12-20T06:07:41;95044.89;;;-1.26;75.39
84026;BME280;74110;45.660;25.582;2023-12-20T06:10:10;95039.02;;;-1.22;75.50
84026;BME280;74110;45.660;25.582;2023-12-20T06:12:40;95037.29;;;-1.20;74.94
84026;BME280;74110;45.660;25.582;2023-12-20T06:15:10;95035.36;;;-1.15;76.15
84026;BME280;74110;45.660;25.582;2023-12-20T06:17:42;95029.50;;;-1.09;75.46
84026;BME280;74110;45.660;25.582;2023-12-20T06:20:21;95026.86;;;-1.05;75.28
84026;BME280;74110;45.660;25.582;2023-12-20T06:22:51;95029.79;;;-1.07;74.07
84026;BME280;74110;45.660;25.582;2023-12-20T06:25:33;95031.42;;;-1.09;74.55
84026;BME280;74110;45.660;25.582;2023-12-20T06:28:02;95034.34;;;-1.10;74.74
84026;BME280;74110;45.660;25.582;2023-12-20T06:30:36;95032.97;;;-1.10;74.59
84026;BME280;74110;45.660;25.582;2023-12-20T06:33:07;95032.77;;;-1.17;73.82
84026;BME280;74110;45.660;25.582;2023-12-20T06:35:36;95034.36;;;-1.20;73.95
84026;BME280;74110;45.660;25.582;2023-12-20T06:38:06;95035.23;;;-1.16;74.64
84026;BME280;74110;45.660;25.582;2023-12-20T06:40:37;95037.63;;;-1.14;73.59
84026;BME280;74110;45.660;25.582;2023-12-20T06:43:06;95033.73;;;-1.12;74.27
84026;BME280;74110;45.660;25.582;2023-12-20T06:45:48;95037.69;;;-1.11;73.56
84026;BME280;74110;45.660;25.582;2023-12-20T06:48:19;95035.31;;;-1.13;73.36
84026;BME280;74110;45.660;25.582;2023-12-20T06:50:50;95036.88;;;-1.13;73.76
84026;BME280;74110;45.660;25.582;2023-12-20T06:53:19;95037.77;;;-1.11;73.13
84026;BME280;74110;45.660;25.582;2023-12-20T06:55:49;95034.95;;;-1.05;73.97
84026;BME280;74110;45.660;25.582;2023-12-20T06:58:19;95031.45;;;-0.95;73.97
84026;BME280;74110;45.660;25.582;2023-12-20T07:00:50;95030.20;;;-0.85;73.71
84026;BME280;74110;45.660;25.582;2023-12-20T07:03:20;95029.44;;;-0.77;73.80
84026;BME280;74110;45.660;25.582;2023-12-20T07:05:50;95030.33;;;-0.71;73.36
84026;BME280;74110;45.660;25.582;2023-12-20T07:08:20;95028.90;;;-0.62;73.81
84026;BME280;74110;45.660;25.582;2023-12-20T07:10:49;95022.63;;;-0.46;74.86
84026;BME280;74110;45.660;25.582;2023-12-20T07:13:19;95017.27;;;-0.31;74.19
84026;BME280;74110;45.660;25.582;2023-12-20T07:15:49;95018.98;;;-0.17;72.78
84026;BME280;74110;45.660;25.582;2023-12-20T07:18:18;95018.07;;;-0.07;72.60
84026;BME280;74110;45.660;25.582;2023-12-20T07:20:58;95019.64;;;0.03;73.27
84026;BME280;74110;45.660;25.582;2023-12-20T07:23:30;95011.80;;;0.19;72.15
84026;BME280;74110;45.660;25.582;2023-12-20T07:26:01;95012.14;;;0.30;72.52
84026;BME280;74110;45.660;25.582;2023-12-20T07:28:31;95004.27;;;0.36;71.62
84026;BME280;74110;45.660;25.582;2023-12-20T07:31:01;95004.16;;;0.45;71.66
84026;BME280;74110;45.660;25.582;2023-12-20T07:33:30;95000.30;;;0.56;72.06
84026;BME280;74110;45.660;25.582;2023-12-20T07:36:09;94995.90;;;0.71;71.74
84026;BME280;74110;45.660;25.582;2023-12-20T07:38:38;94989.95;;;0.87;71.58
84026;BME280;74110;45.660;25.582;2023-12-20T07:41:09;94989.64;;;1.03;70.72
84026;BME280;74110;45.660;25.582;2023-12-20T07:43:43;94989.47;;;1.11;70.13
84026;BME280;74110;45.660;25.582;2023-12-20T07:46:21;94983.22;;;1.08;70.84
84026;BME280;74110;45.660;25.582;2023-12-20T07:49:00;94976.04;;;1.17;71.62
84026;BME280;74110;45.660;25.582;2023-12-20T07:51:29;94980.56;;;1.22;70.47
84026;BME280;74110;45.660;25.582;2023-12-20T07:53:59;94981.29;;;1.26;69.79
84026;BME280;74110;45.660;25.582;2023-12-20T07:56:30;94980.88;;;1.31;70.62
84026;BME280;74110;45.660;25.582;2023-12-20T07:58:59;94979.90;;;1.41;70.55
84026;BME280;74110;45.660;25.582;2023-12-20T08:01:28;94980.59;;;1.52;70.65
84026;BME280;74110;45.660;25.582;2023-12-20T08:03:58;94982.59;;;1.57;69.70
84026;BME280;74110;45.660;25.582;2023-12-20T08:06:27;94981.64;;;1.48;68.51
84026;BME280;74110;45.660;25.582;2023-12-20T08:08:57;94978.95;;;1.42;69.12
84026;BME280;74110;45.660;25.582;2023-12-20T08:11:37;94975.58;;;1.39;68.80
84026;BME280;74110;45.660;25.582;2023-12-20T08:14:07;94969.12;;;1.48;70.15
84026;BME280;74110;45.660;25.582;2023-12-20T08:16:38;94968.64;;;1.61;70.51
84026;BME280;74110;45.660;25.582;2023-12-20T08:19:09;94963.51;;;1.78;69.93
84026;BME280;74110;45.660;25.582;2023-12-20T08:21:39;94953.45;;;1.95;69.35
84026;BME280;74110;45.660;25.582;2023-12-20T08:24:09;94953.72;;;2.08;68.82
84026;BME280;74110;45.660;25.582;2023-12-20T08:26:39;94947.08;;;2.17;68.79
84026;BME280;74110;45.660;25.582;2023-12-20T08:29:09;94938.98;;;2.27;68.96
84026;BME280;74110;45.660;25.582;2023-12-20T08:31:41;94942.21;;;2.33;68.46
84026;BME280;74110;45.660;25.582;2023-12-20T08:34:09;94935.92;;;2.34;68.31
84026;BME280;74110;45.660;25.582;2023-12-20T08:36:40;94923.14;;;2.36;68.44
84026;BME280;74110;45.660;25.582;2023-12-20T08:39:10;94923.48;;;2.41;68.06
84026;BME280;74110;45.660;25.582;2023-12-20T08:41:41;94919.41;;;2.43;68.49
84026;BME280;74110;45.660;25.582;2023-12-20T08:44:09;94919.19;;;2.50;68.38
84026;BME280;74110;45.660;25.582;2023-12-20T08:46:38;94913.84;;;2.59;68.55
84026;BME280;74110;45.660;25.582;2023-12-20T08:49:08;94906.45;;;2.70;69.22
84026;BME280;74110;45.660;25.582;2023-12-20T08:51:42;94902.05;;;2.83;69.14
84026;BME280;74110;45.660;25.582;2023-12-20T08:54:13;94900.48;;;2.93;68.33
84026;BME280;74110;45.660;25.582;2023-12-20T08:56:42;94895.97;;;2.95;67.86
84026;BME280;74110;45.660;25.582;2023-12-20T08:59:13;94896.52;;;3.06;68.19
84026;BME280;74110;45.660;25.582;2023-12-20T09:01:44;94891.25;;;3.10;67.55
84026;BME280;74110;45.660;25.582;2023-12-20T09:04:23;94885.80;;;3.14;67.74
84026;BME280;74110;45.660;25.582;2023-12-20T09:06:54;94880.55;;;3.14;67.25
84026;BME280;74110;45.660;25.582;2023-12-20T09:09:23;94870.77;;;3.16;67.59
84026;BME280;74110;45.660;25.582;2023-12-20T09:11:53;94859.91;;;3.17;67.90
84026;BME280;74110;45.660;25.582;2023-12-20T09:14:22;94856.13;;;3.23;67.85
84026;BME280;74110;45.660;25.582;2023-12-20T09:16:52;94853.36;;;3.26;67.47
84026;BME280;74110;45.660;25.582;2023-12-20T09:19:28;94844.69;;;3.28;67.66
84026;BME280;74110;45.660;25.582;2023-12-20T09:21:58;94841.59;;;3.26;67.23
84026;BME280;74110;45.660;25.582;2023-12-20T09:24:27;94837.35;;;3.10;66.82
84026;BME280;74110;45.660;25.582;2023-12-20T09:26:57;94831.29;;;2.99;67.26
84026;BME280;74110;45.660;25.582;2023-12-20T09:29:26;94828.02;;;2.93;67.21
84026;BME280;74110;45.660;25.582;2023-12-20T09:31:56;94822.05;;;2.91;68.53
84026;BME280;74110;45.660;25.582;2023-12-20T09:34:27;94815.33;;;3.05;68.90
84026;BME280;74110;45.660;25.582;2023-12-20T09:36:56;94807.54;;;3.20;68.32
84026;BME280;74110;45.660;25.582;2023-12-20T09:39:34;94805.83;;;3.36;67.87
84026;BME280;74110;45.660;25.582;2023-12-20T09:42:11;94799.22;;;3.47;67.66
84026;BME280;74110;45.660;25.582;2023-12-20T09:44:44;94792.48;;;3.57;67.28
84026;BME280;74110;45.660;25.582;2023-12-20T09:47:15;94783.88;;;3.61;67.00
84026;BME280;74110;45.660;25.582;2023-12-20T09:49:49;94781.98;;;3.65;67.50
84026;BME280;74110;45.660;25.582;2023-12-20T09:52:24;94778.98;;;3.63;67.03
84026;BME280;74110;45.660;25.582;2023-12-20T09:54:58;94779.66;;;3.63;67.38
84026;BME280;74110;45.660;25.582;2023-12-20T09:57:32;94770.21;;;3.62;67.03
84026;BME280;74110;45.660;25.582;2023-12-20T10:00:01;94762.91;;;3.48;66.75
84026;BME280;74110;45.660;25.582;2023-12-20T10:02:59;94759.45;;;3.06;67.65
84026;BME280;74110;45.660;25.582;2023-12-20T10:05:52;94751.48;;;3.08;68.38
84026;BME280;74110;45.660;25.582;2023-12-20T10:08:47;94741.30;;;3.09;68.15
84026;BME280;74110;45.660;25.582;2023-12-20T10:11:21;94738.69;;;2.90;68.55
84026;BME280;74110;45.660;25.582;2023-12-20T10:13:50;94733.23;;;2.66;69.41
84026;BME280;74110;45.660;25.582;2023-12-20T10:16:26;94731.86;;;2.66;69.55
84026;BME280;74110;45.660;25.582;2023-12-20T10:18:57;94724.91;;;2.71;69.68
84026;BME280;74110;45.660;25.582;2023-12-20T10:21:27;94718.06;;;2.67;69.28
84026;BME280;74110;45.660;25.582;2023-12-20T10:23:57;94716.67;;;2.72;69.48
84026;BME280;74110;45.660;25.582;2023-12-20T10:26:29;94712.05;;;2.85;69.02
84026;BME280;74110;45.660;25.582;2023-12-20T10:29:10;94709.23;;;2.85;68.59
84026;BME280;74110;45.660;25.582;2023-12-20T10:31:42;94707.20;;;3.01;68.69
84026;BME280;74110;45.660;25.582;2023-12-20T10:34:17;94702.59;;;3.14;67.41
84026;BME280;74110;45.660;25.582;2023-12-20T10:36:48;94701.33;;;3.10;66.81
84026;BME280;74110;45.660;25.582;2023-12-20T10:39:18;94700.15;;;2.90;66.47
84026;BME280;74110;45.660;25.582;2023-12-20T10:41:49;94695.64;;;2.85;67.25
84026;BME280;74110;45.660;25.582;2023-12-20T10:44:21;94696.00;;;2.86;67.40
84026;BME280;74110;45.660;25.582;2023-12-20T10:46:51;94688.00;;;2.63;68.40
84026;BME280;74110;45.660;25.582;2023-12-20T10:49:27;94684.12;;;2.68;68.73
84026;BME280;74110;45.660;25.582;2023-12-20T10:51:59;94670.65;;;2.82;68.58
84026;BME280;74110;45.660;25.582;2023-12-20T10:54:31;94667.14;;;2.92;68.14
84026;BME280;74110;45.660;25.582;2023-12-20T10:57:01;94659.63;;;3.03;68.06
84026;BME280;74110;45.660;25.582;2023-12-20T10:59:39;94654.21;;;3.17;68.04
84026;BME280;74110;45.660;25.582;2023-12-20T11:02:19;94644.29;;;3.21;67.24
84026;BME280;74110;45.660;25.582;2023-12-20T11:05:01;94644.75;;;3.25;67.45
84026;BME280;74110;45.660;25.582;2023-12-20T11:07:43;94639.38;;;3.38;67.24
84026;BME280;74110;45.660;25.582;2023-12-20T11:10:51;94635.02;;;3.56;66.84
84026;BME280;74110;45.660;25.582;2023-12-20T11:14:02;94628.79;;;3.68;65.43
84026;BME280;74110;45.660;25.582;2023-12-20T11:16:36;94622.77;;;3.65;65.43
84026;BME280;74110;45.660;25.582;2023-12-20T11:19:19;94614.00;;;3.76;66.02
84026;BME280;74110;45.660;25.582;2023-12-20T11:21:51;94609.17;;;3.87;66.24
84026;BME280;74110;45.660;25.582;2023-12-20T11:24:23;94603.95;;;4.02;66.39
84026;BME280;74110;45.660;25.582;2023-12-20T11:26:56;94601.60;;;4.10;64.58
84026;BME280;74110;45.660;25.582;2023-12-20T11:29:35;94602.58;;;4.15;65.10
84026;BME280;74110;45.660;25.582;2023-12-20T11:32:44;94598.42;;;4.23;64.65
84026;BME280;74110;45.660;25.582;2023-12-20T11:35:18;94595.12;;;4.40;65.10
84026;BME280;74110;45.660;25.582;2023-12-20T11:37:51;94587.05;;;4.51;64.14
84026;BME280;74110;45.660;25.582;2023-12-20T11:40:19;94588.55;;;4.62;64.42
84026;BME280;74110;45.660;25.582;2023-12-20T11:42:51;94579.10;;;4.73;64.06
84026;BME280;74110;45.660;25.582;2023-12-20T11:45:25;94578.59;;;4.84;64.32
84026;BME280;74110;45.660;25.582;2023-12-20T11:48:00;94577.67;;;4.93;64.02
84026;BME280;74110;45.660;25.582;2023-12-20T11:50:30;94573.84;;;4.97;63.59
84026;BME280;74110;45.660;25.582;2023-12-20T11:53:00;94565.11;;;4.95;63.58
84026;BME280;74110;45.660;25.582;2023-12-20T11:55:33;94567.21;;;4.90;63.05
84026;BME280;74110;45.660;25.582;2023-12-20T11:58:03;94566.46;;;4.85;62.52
84026;BME280;74110;45.660;25.582;2023-12-20T12:00:33;94562.39;;;4.88;64.15
84026;BME280;74110;45.660;25.582;2023-12-20T12:03:02;94560.37;;;4.95;64.92
84026;BME280;74110;45.660;25.582;2023-12-20T12:05:32;94555.45;;;4.96;63.54
84026;BME280;74110;45.660;25.582;2023-12-20T12:08:03;94548.20;;;4.91;62.56
84026;BME280;74110;45.660;25.582;2023-12-20T12:10:34;94542.93;;;4.78;63.00
84026;BME280;74110;45.660;25.582;2023-12-20T12:13:05;94544.40;;;4.79;63.50
84026;BME280;74110;45.660;25.582;2023-12-20T12:15:34;94536.23;;;4.80;63.19
84026;BME280;74110;45.660;25.582;2023-12-20T12:18:03;94529.27;;;4.75;63.70
84026;BME280;74110;45.660;25.582;2023-12-20T12:20:35;94526.65;;;4.73;64.11
84026;BME280;74110;45.660;25.582;2023-12-20T12:23:06;94524.95;;;4.76;63.89
84026;BME280;74110;45.660;25.582;2023-12-20T12:25:36;94523.50;;;4.77;63.88
84026;BME280;74110;45.660;25.582;2023-12-20T12:28:12;94507.47;;;4.86;64.17
84026;BME280;74110;45.660;25.582;2023-12-20T12:30:42;94498.45;;;4.88;64.45
84026;BME280;74110;45.660;25.582;2023-12-20T12:33:22;94497.38;;;4.84;64.62
84026;BME280;74110;45.660;25.582;2023-12-20T12:35:52;94494.55;;;4.88;64.71
84026;BME280;74110;45.660;25.582;2023-12-20T12:38:24;94494.30;;;4.88;64.61
84026;BME280;74110;45.660;25.582;2023-12-20T12:40:54;94485.96;;;4.84;65.24
84026;BME280;74110;45.660;25.582;2023-12-20T12:43:23;94479.96;;;4.82;65.07
84026;BME280;74110;45.660;25.582;2023-12-20T12:45:53;94479.13;;;4.82;66.04
84026;BME280;74110;45.660;25.582;2023-12-20T12:48:22;94477.61;;;4.75;66.28
84026;BME280;74110;45.660;25.582;2023-12-20T12:50:51;94479.99;;;4.74;66.89
84026;BME280;74110;45.660;25.582;2023-12-20T12:53:22;94475.83;;;4.78;66.64
84026;BME280;74110;45.660;25.582;2023-12-20T12:55:50;94481.29;;;4.81;66.35
84026;BME280;74110;45.660;25.582;2023-12-20T12:58:20;94479.53;;;4.82;66.08
84026;BME280;74110;45.660;25.582;2023-12-20T13:00:51;94474.47;;;4.78;66.02
84026;BME280;74110;45.660;25.582;2023-12-20T13:03:21;94466.34;;;4.64;66.21
84026;BME280;74110;45.660;25.582;2023-12-20T13:05:50;94465.64;;;4.55;66.74
84026;BME280;74110;45.660;25.582;2023-12-20T13:08:19;94469.37;;;4.43;67.48
84026;BME280;74110;45.660;25.582;2023-12-20T13:10:49;94472.13;;;4.41;67.06
84026;BME280;74110;45.660;25.582;2023-12-20T13:13:18;94472.20;;;4.37;67.18
84026;BME280;74110;45.660;25.582;2023-12-20T13:15:47;94469.23;;;4.34;66.96